Weather at Bergen Airport Flesland

Public forecast

Using degrees Celsius for public forecast. Weather courtesy of forecast.io.

Current aviation weather report (METAR) for Bergen Airport Flesland

Retrieved 2020/10/23 01:50 UTC (25 minutes ago):

ENBR 230150Z 00000KT 9999 BKN027 05/04 Q0999 RMK WIND 1200FT 30009KT

Aviation forecast (TAF) for Bergen Airport Flesland

Retrieved 2020-10-23 00:57 UTC (1 hour ago):

TAF ENBR 222300Z 2300/2324 VRB03KT 9999 FEW005 SCT015 BKN025 TEMPO 2300/2302 BKN008 PROB30 TEMPO 2302/2307 3000 PRFG BECMG 2309/2312 16010KT BECMG 2315/2318 -RA BKN014 TEMPO 2318/2324 18020KT 4000 RADZ BKN009